Time;durP1;ratioP1;P1;durP2;ratioP2;P2;SDS_P1;SDS_P2;PMS_P1;PMS_P2;Temp;Humidity;BMP_temperature;BMP_pressure;BME280_temperature;BME280_humidity;BME280_pressure;Samples;Min_cycle;Max_cycle;Signal;HPM_P1;HPM_P2
2022/07/25 00:01:35;;;;;;;23.33;17.17;;;11.50;99.90;;;;;;4989514;28;20018;-69
2022/07/25 00:04:03;;;;;;;31.05;20.92;;;11.60;99.90;;;;;;4989959;28;20491;-73
2022/07/25 00:06:30;;;;;;;24.85;17.70;;;11.70;99.90;;;;;;4990163;28;20041;-69
2022/07/25 00:08:57;;;;;;;24.77;16.75;;;11.90;99.90;;;;;;4989379;28;20034;-71
2022/07/25 00:11:24;;;;;;;25.77;16.88;;;12.10;99.90;;;;;;4989814;28;20501;-69
2022/07/25 00:13:51;;;;;;;24.77;18.13;;;12.20;99.90;;;;;;4989314;28;20061;-69
2022/07/25 00:16:18;;;;;;;19.58;13.82;;;12.40;99.90;;;;;;4988999;28;20050;-70
2022/07/25 00:18:46;;;;;;;20.77;13.68;;;12.50;99.90;;;;;;4985812;28;20193;-73
2022/07/25 00:21:13;;;;;;;21.70;14.55;;;12.70;99.90;;;;;;4989373;28;20022;-70
2022/07/25 00:23:40;;;;;;;18.13;12.45;;;12.90;99.90;;;;;;4989433;28;20018;-70
2022/07/25 00:26:07;;;;;;;12.82;8.82;;;13.00;99.90;;;;;;4988058;28;20034;-68
2022/07/25 00:28:34;;;;;;;9.25;6.30;;;13.20;99.90;;;;;;4988367;28;20058;-68
2022/07/25 00:31:01;;;;;;;9.05;5.60;;;13.30;99.90;;;;;;4988519;28;20030;-71
2022/07/25 00:33:28;;;;;;;6.38;3.90;;;13.40;99.90;;;;;;4989647;28;20029;-69
2022/07/25 00:35:56;;;;;;;8.77;6.20;;;13.60;99.90;;;;;;4987787;28;20023;-71
2022/07/25 00:38:23;;;;;;;7.38;5.95;;;13.70;99.90;;;;;;4988086;28;20022;-69
2022/07/25 00:40:50;;;;;;;6.13;5.07;;;13.80;99.90;;;;;;4988718;28;20505;-71
2022/07/25 00:43:17;;;;;;;6.45;5.85;;;14.00;99.90;;;;;;4987796;28;20018;-67
2022/07/25 00:45:44;;;;;;;6.40;5.45;;;14.20;99.90;;;;;;4988261;28;20569;-71
2022/07/25 00:48:11;;;;;;;7.22;5.85;;;14.30;99.90;;;;;;4989854;28;20026;-68
2022/07/25 00:50:38;;;;;;;7.32;6.20;;;14.50;99.90;;;;;;4989030;28;20116;-70
2022/07/25 00:53:05;;;;;;;12.30;9.85;;;14.60;99.90;;;;;;4987407;28;20091;-66
2022/07/25 00:55:34;;;;;;;8.15;7.25;;;14.70;99.90;;;;;;4987466;28;20026;-72
2022/07/25 00:58:01;;;;;;;8.30;6.90;;;14.80;99.90;;;;;;4987419;28;20026;-73
2022/07/25 01:00:28;;;;;;;14.27;11.40;;;14.80;99.90;;;;;;4987039;28;20026;-71
2022/07/25 01:02:55;;;;;;;8.75;7.82;;;15.00;99.90;;;;;;4986854;28;20030;-67
2022/07/25 01:05:22;;;;;;;9.13;7.32;;;15.10;99.90;;;;;;4999399;28;20030;-71
2022/07/25 01:07:51;;;;;;;7.60;6.40;;;15.20;99.90;;;;;;4985551;28;20437;-70
2022/07/25 01:10:18;;;;;;;6.68;6.03;;;15.30;99.90;;;;;;4989279;28;20037;-71
2022/07/25 01:12:53;;;;;;;7.70;5.43;;;15.60;99.90;;;;;;4993537;28;20096;-72
2022/07/25 01:15:22;;;;;;;8.93;5.22;;;15.80;99.90;;;;;;4989318;28;20376;-72
2022/07/25 01:17:50;;;;;;;7.45;5.30;;;16.00;99.90;;;;;;4987421;28;20032;-73
2022/07/25 01:20:22;;;;;;;6.78;5.38;;;16.10;99.90;;;;;;4986871;28;20018;-72
2022/07/25 01:22:50;;;;;;;4.43;3.78;;;16.30;99.90;;;;;;4988586;28;20026;-71
2022/07/25 01:25:18;;;;;;;4.28;3.38;;;16.50;99.90;;;;;;4989657;28;20022;-71
2022/07/25 01:27:46;;;;;;;5.68;3.30;;;16.60;99.90;;;;;;4993227;28;20069;-69
2022/07/25 01:30:16;;;;;;;3.42;3.13;;;16.90;99.90;;;;;;4986440;28;20512;-70
2022/07/25 01:32:44;;;;;;;3.30;3.00;;;17.00;99.90;;;;;;4636591;28;10000309;-70
2022/07/25 01:35:13;;;;;;;3.97;3.10;;;17.20;99.90;;;;;;4980996;28;20362;-70
2022/07/25 01:37:41;;;;;;;4.53;3.50;;;17.30;99.90;;;;;;4984448;28;20026;-70
2022/07/25 01:40:08;;;;;;;5.88;4.50;;;17.50;99.90;;;;;;4991682;28;20015;-72
2022/07/25 01:42:35;;;;;;;5.35;3.88;;;17.60;99.90;;;;;;4985666;28;20047;-69
2022/07/25 01:45:03;;;;;;;5.57;4.18;;;17.60;99.90;;;;;;4987385;28;20023;-67
2022/07/25 01:47:31;;;;;;;5.82;4.88;;;17.80;99.90;;;;;;4985815;28;20034;-69
2022/07/25 01:49:58;;;;;;;8.43;5.13;;;17.90;99.90;;;;;;4979115;28;20438;-71
2022/07/25 01:52:25;;;;;;;9.80;6.57;;;18.10;99.90;;;;;;4985672;28;20054;-68
2022/07/25 01:54:52;;;;;;;7.43;5.32;;;18.20;99.90;;;;;;4988861;28;20078;-67
2022/07/25 01:57:19;;;;;;;8.00;5.57;;;18.30;99.90;;;;;;4985175;28;20594;-70
2022/07/25 01:59:46;;;;;;;8.30;6.65;;;18.30;99.90;;;;;;4987081;28;20030;-70
2022/07/25 02:02:13;;;;;;;13.48;7.00;;;18.20;99.90;;;;;;4986325;28;20567;-67
2022/07/25 02:04:40;;;;;;;9.45;5.65;;;18.30;99.90;;;;;;4984524;28;20027;-64
2022/07/25 02:07:07;;;;;;;9.90;6.55;;;18.50;99.90;;;;;;4986822;28;20181;-66
2022/07/25 02:09:35;;;;;;;7.05;5.25;;;18.50;99.90;;;;;;4987629;28;20022;-67
2022/07/25 02:12:02;;;;;;;9.70;6.10;;;18.60;99.90;;;;;;4986895;28;20125;-68
2022/07/25 02:14:29;;;;;;;10.27;5.90;;;18.90;99.90;;;;;;4984412;28;20077;-67
2022/07/25 02:16:56;;;;;;;8.20;3.80;;;19.10;99.90;;;;;;4990352;28;20097;-67
2022/07/25 02:19:23;;;;;;;11.70;5.72;;;19.10;99.90;;;;;;4984186;28;20026;-68
2022/07/25 02:21:51;;;;;;;6.15;3.65;;;18.90;99.90;;;;;;4997800;28;20434;-65
2022/07/25 02:24:18;;;;;;;8.20;4.70;;;18.60;99.90;;;;;;4991502;28;20018;-68
2022/07/25 02:26:45;;;;;;;7.22;4.07;;;18.80;99.90;;;;;;4982423;28;20033;-69
2022/07/25 02:29:12;;;;;;;5.45;3.83;;;18.90;99.90;;;;;;4987588;28;20517;-65
2022/07/25 02:32:28;;;;;;;4.35;2.58;;;19.10;99.90;;;;;;4992663;28;20030;-65
2022/07/25 02:35:45;;;;;;;3.85;2.08;;;19.30;99.90;;;;;;4989784;28;20140;-65
2022/07/25 02:39:00;;;;;;;3.30;2.40;;;19.50;99.90;;;;;;4981795;28;20038;-67
2022/07/25 02:41:28;;;;;;;3.70;2.78;;;19.50;99.90;;;;;;4984664;28;20053;-68
2022/07/25 02:43:55;;;;;;;4.63;2.42;;;19.60;99.90;;;;;;4985609;28;20141;-67
2022/07/25 02:46:22;;;;;;;4.53;2.38;;;19.80;99.90;;;;;;4986279;28;20030;-67
2022/07/25 02:48:49;;;;;;;5.03;2.30;;;19.90;99.90;;;;;;4986724;28;20057;-67
2022/07/25 02:51:17;;;;;;;6.32;3.20;;;20.10;99.90;;;;;;4986224;28;20029;-68
2022/07/25 02:53:44;;;;;;;6.35;2.83;;;20.10;99.90;;;;;;4985861;28;20081;-67
2022/07/25 02:56:11;;;;;;;5.32;2.03;;;20.00;99.90;;;;;;4985848;28;20022;-68
2022/07/25 02:58:38;;;;;;;3.67;1.98;;;20.10;99.90;;;;;;4985484;28;20060;-68
2022/07/25 03:01:06;;;;;;;2.95;1.13;;;20.00;99.90;;;;;;4986442;28;20557;-68
2022/07/25 03:03:33;;;;;;;4.13;1.52;;;19.90;99.90;;;;;;4985369;28;20137;-68
2022/07/25 03:06:00;;;;;;;6.25;1.92;;;20.10;99.90;;;;;;4984662;28;20061;-68
2022/07/25 03:08:27;;;;;;;6.68;2.40;;;20.10;99.90;;;;;;4985211;28;20033;-67
2022/07/25 03:10:54;;;;;;;4.00;1.60;;;20.30;99.90;;;;;;4986274;28;20019;-66
2022/07/25 03:13:22;;;;;;;4.95;1.40;;;20.30;99.90;;;;;;4985492;28;20073;-67
2022/07/25 03:15:49;;;;;;;2.20;1.15;;;20.40;99.90;;;;;;4983705;28;20045;-68
2022/07/25 03:18:16;;;;;;;2.70;1.13;;;20.60;99.90;;;;;;4976757;28;20022;-67
2022/07/25 03:20:43;;;;;;;3.65;1.20;;;20.70;99.90;;;;;;4982527;28;20027;-68
2022/07/25 03:23:10;;;;;;;3.90;1.23;;;20.80;99.90;;;;;;4982891;28;20056;-67
2022/07/25 03:25:37;;;;;;;2.78;1.50;;;20.80;99.90;;;;;;4984829;28;20030;-67
2022/07/25 03:28:04;;;;;;;3.92;1.65;;;20.80;99.90;;;;;;4983882;28;20049;-65
2022/07/25 03:30:32;;;;;;;3.17;1.52;;;20.90;99.90;;;;;;4984874;28;20053;-65
2022/07/25 03:32:59;;;;;;;4.50;2.20;;;21.00;99.90;;;;;;4983128;28;20157;-66
2022/07/25 03:35:26;;;;;;;3.47;1.92;;;20.90;99.90;;;;;;4987751;28;20390;-67
2022/07/25 03:37:53;;;;;;;1.77;1.17;;;20.90;99.90;;;;;;4989589;28;20019;-63
2022/07/25 03:40:20;;;;;;;2.22;1.10;;;20.90;99.90;;;;;;4988125;28;20850;-65
2022/07/25 03:42:47;;;;;;;1.65;0.73;;;20.90;99.90;;;;;;4987121;28;20494;-65
2022/07/25 03:45:15;;;;;;;1.15;0.70;;;20.80;99.90;;;;;;4983072;28;20037;-68
2022/07/25 03:47:42;;;;;;;4.35;3.00;;;20.90;99.90;;;;;;4990790;28;20027;-67
2022/07/25 03:50:10;;;;;;;10.75;7.07;;;20.90;99.90;;;;;;4988403;28;20103;-68
2022/07/25 03:52:37;;;;;;;3.50;2.88;;;21.00;99.90;;;;;;4988346;28;20050;-66
2022/07/25 03:55:06;;;;;;;1.38;1.08;;;20.90;99.90;;;;;;4987816;28;20029;-66
2022/07/25 03:57:34;;;;;;;2.40;0.70;;;20.90;99.90;;;;;;4986678;28;20057;-66
2022/07/25 04:00:01;;;;;;;1.20;0.40;;;20.80;99.90;;;;;;4988882;28;20026;-67
2022/07/25 04:02:30;;;;;;;1.95;0.73;;;20.80;99.90;;;;;;4986919;28;20030;-64
2022/07/25 04:04:57;;;;;;;0.90;0.50;;;20.80;99.90;;;;;;4986901;28;20018;-65
2022/07/25 04:07:24;;;;;;;0.82;0.47;;;20.70;99.90;;;;;;4987039;28;20022;-64
2022/07/25 04:09:51;;;;;;;0.93;0.43;;;20.80;99.90;;;;;;4987686;28;20030;-67
2022/07/25 04:12:18;;;;;;;0.68;0.50;;;20.90;99.90;;;;;;4987192;28;20022;-68
2022/07/25 04:14:45;;;;;;;0.68;0.45;;;21.00;99.90;;;;;;4987728;28;20038;-68
2022/07/25 04:17:12;;;;;;;1.65;0.75;;;20.90;99.90;;;;;;4985268;28;20036;-68
2022/07/25 04:19:40;;;;;;;2.05;0.68;;;21.00;99.80;;;;;;4985154;28;20061;-66
2022/07/25 04:22:07;;;;;;;4.43;0.82;;;20.90;99.90;;;;;;4986611;28;20606;-67
2022/07/25 04:24:34;;;;;;;1.25;0.63;;;21.00;99.80;;;;;;4987265;28;20593;-68
2022/07/25 04:27:01;;;;;;;2.47;0.80;;;21.10;99.60;;;;;;4987157;28;20030;-67
2022/07/25 04:29:28;;;;;;;2.95;0.90;;;21.30;99.40;;;;;;4985524;28;20034;-67
2022/07/25 04:31:56;;;;;;;3.05;0.60;;;21.40;99.10;;;;;;4985544;28;20066;-67
2022/07/25 04:34:23;;;;;;;1.38;0.40;;;21.40;98.00;;;;;;4985967;28;20026;-71
2022/07/25 04:36:51;;;;;;;0.88;0.52;;;21.30;97.80;;;;;;4985939;28;20022;-71
2022/07/25 04:39:18;;;;;;;1.38;0.50;;;21.20;97.50;;;;;;4985129;28;20049;-69
2022/07/25 04:41:45;;;;;;;1.23;0.43;;;20.80;98.10;;;;;;4986225;28;20305;-74
2022/07/25 04:44:12;;;;;;;0.85;0.30;;;20.20;98.80;;;;;;4985693;28;20030;-73
2022/07/25 04:46:40;;;;;;;0.47;0.30;;;19.90;99.10;;;;;;4985234;28;20499;-70
2022/07/25 04:49:07;;;;;;;3.70;0.77;;;19.90;99.70;;;;;;4984486;28;20018;-66
2022/07/25 04:51:34;;;;;;;0.38;0.30;;;20.10;99.50;;;;;;4986567;28;20491;-69
2022/07/25 04:54:03;;;;;;;1.65;0.30;;;20.30;98.60;;;;;;4965555;23;20059;-69
2022/07/25 04:56:30;;;;;;;0.52;0.40;;;20.40;98.50;;;;;;4946849;28;20035;-69
2022/07/25 04:58:57;;;;;;;0.63;0.25;;;20.10;98.40;;;;;;4946547;28;20023;-73
2022/07/25 05:01:25;;;;;;;1.50;0.38;;;19.70;99.30;;;;;;4947637;28;20134;-69
2022/07/25 05:03:52;;;;;;;1.27;0.70;;;19.50;99.90;;;;;;4944209;28;20431;-73
2022/07/25 05:06:19;;;;;;;1.20;0.40;;;19.40;99.90;;;;;;4946425;28;20357;-74
2022/07/25 05:08:46;;;;;;;4.18;1.08;;;19.40;99.90;;;;;;4946995;28;20023;-71
2022/07/25 05:11:13;;;;;;;4.13;1.00;;;19.30;99.90;;;;;;4944007;28;20039;-69
2022/07/25 05:13:41;;;;;;;2.58;1.20;;;19.30;99.90;;;;;;4946340;28;20114;-67
2022/07/25 05:16:08;;;;;;;2.15;1.00;;;19.30;99.90;;;;;;4944656;28;20035;-69
2022/07/25 05:18:35;;;;;;;3.50;1.30;;;19.50;99.90;;;;;;4943696;28;20019;-73
2022/07/25 05:21:02;;;;;;;6.97;4.53;;;19.50;99.90;;;;;;4946737;28;20030;-67
2022/07/25 05:23:29;;;;;;;7.25;4.97;;;19.60;99.90;;;;;;4945490;28;20418;-69
2022/07/25 05:25:56;;;;;;;1.38;0.98;;;19.80;99.90;;;;;;4946024;28;20062;-68
2022/07/25 05:28:23;;;;;;;1.63;1.05;;;19.70;99.70;;;;;;4946692;28;20507;-72
2022/07/25 05:30:50;;;;;;;4.68;2.28;;;19.60;99.90;;;;;;4946249;28;20067;-72
2022/07/25 05:33:17;;;;;;;4.93;3.72;;;19.60;99.90;;;;;;4944123;28;20030;-68
2022/07/25 05:35:45;;;;;;;3.95;1.52;;;20.00;99.90;;;;;;4945057;28;20642;-64
2022/07/25 05:38:12;;;;;;;3.58;1.05;;;20.60;99.00;;;;;;4944857;28;20555;-65
2022/07/25 05:40:39;;;;;;;1.83;0.45;;;21.10;97.40;;;;;;4945048;28;20023;-67
2022/07/25 05:43:06;;;;;;;1.20;0.50;;;21.30;97.20;;;;;;4946040;28;20118;-68
2022/07/25 05:45:33;;;;;;;2.00;0.47;;;21.60;96.40;;;;;;4942818;28;20563;-70
2022/07/25 05:48:00;;;;;;;1.80;0.90;;;21.60;97.00;;;;;;4945785;28;21197;-69
2022/07/25 05:50:27;;;;;;;1.42;0.70;;;21.40;97.00;;;;;;4943103;28;20036;-72
2022/07/25 05:52:54;;;;;;;1.40;0.60;;;21.40;96.90;;;;;;4947004;28;20050;-68
2022/07/25 05:55:21;;;;;;;2.30;0.90;;;21.50;96.40;;;;;;4943441;28;20511;-69
2022/07/25 05:57:48;;;;;;;1.42;0.77;;;21.80;96.70;;;;;;4944857;28;20110;-69
2022/07/25 06:00:16;;;;;;;1.63;0.52;;;21.70;96.70;;;;;;4944762;28;20077;-69
2022/07/25 06:02:43;;;;;;;1.70;0.93;;;21.50;96.70;;;;;;4945850;28;20571;-69
2022/07/25 06:05:10;;;;;;;4.63;1.00;;;21.00;97.40;;;;;;4945310;28;20044;-67
2022/07/25 06:07:37;;;;;;;2.88;0.82;;;20.50;98.60;;;;;;4944319;28;20109;-73
2022/07/25 06:10:05;;;;;;;1.95;0.60;;;20.10;99.70;;;;;;4943459;28;20023;-66
2022/07/25 06:12:32;;;;;;;2.28;0.85;;;19.70;99.90;;;;;;4944350;28;20062;-69
2022/07/25 06:15:00;;;;;;;1.95;0.65;;;19.40;99.90;;;;;;4944820;28;20082;-72
2022/07/25 06:17:27;;;;;;;1.13;0.50;;;19.00;99.90;;;;;;4946183;28;20078;-69
2022/07/25 06:19:54;;;;;;;3.20;1.25;;;18.70;99.90;;;;;;4943626;28;20400;-71
2022/07/25 06:22:21;;;;;;;3.15;0.85;;;18.30;99.90;;;;;;4945430;28;20031;-66
2022/07/25 06:24:48;;;;;;;2.20;0.80;;;18.00;99.90;;;;;;4945353;28;20128;-72
2022/07/25 06:27:41;;;;;;;6.13;3.80;;;17.80;99.90;;;;;;4948540;28;20094;-69
2022/07/25 06:30:11;;;;;;;1.20;0.75;;;17.80;99.90;;;;;;4944006;28;20468;-65
2022/07/25 06:32:38;;;;;;;2.50;1.20;;;17.80;99.90;;;;;;4943897;28;20042;-68
2022/07/25 06:35:06;;;;;;;1.10;0.80;;;17.80;99.90;;;;;;4946386;28;20050;-71
2022/07/25 06:37:38;;;;;;;1.33;0.75;;;17.70;99.90;;;;;;4940433;28;20057;-68
2022/07/25 06:40:06;;;;;;;1.77;0.60;;;17.80;99.90;;;;;;4942651;28;20114;-68
2022/07/25 06:42:36;;;;;;;1.00;0.60;;;17.70;99.90;;;;;;4941068;28;20027;-72
2022/07/25 06:45:05;;;;;;;1.02;0.52;;;17.80;99.90;;;;;;4942150;28;20082;-64
2022/07/25 06:47:32;;;;;;;2.83;0.47;;;17.80;99.90;;;;;;4940343;28;20070;-68
2022/07/25 06:49:59;;;;;;;0.75;0.47;;;18.10;99.90;;;;;;4940604;28;20057;-71
2022/07/25 06:52:26;;;;;;;1.60;0.93;;;18.30;99.90;;;;;;4941825;28;20559;-68
2022/07/25 06:54:53;;;;;;;3.00;0.70;;;18.30;99.90;;;;;;4943274;28;20031;-71
2022/07/25 06:57:20;;;;;;;3.45;1.02;;;18.30;99.90;;;;;;4940094;28;20674;-67
2022/07/25 06:59:48;;;;;;;4.38;2.45;;;18.10;99.90;;;;;;4942813;28;20062;-64
2022/07/25 07:02:15;;;;;;;1.20;1.10;;;17.80;99.90;;;;;;4941906;28;20526;-68
2022/07/25 07:04:42;;;;;;;5.07;4.60;;;17.40;99.90;;;;;;4944551;28;20521;-73
2022/07/25 07:07:09;;;;;;;25.13;19.88;;;17.10;99.90;;;;;;4941199;28;20038;-65
2022/07/25 07:09:36;;;;;;;45.00;34.40;;;16.90;99.90;;;;;;4941815;28;20399;-63
2022/07/25 07:12:04;;;;;;;18.63;14.70;;;16.60;99.90;;;;;;4945886;28;20122;-65
2022/07/25 07:14:31;;;;;;;11.60;7.95;;;16.40;99.90;;;;;;4944968;28;20109;-65
2022/07/25 07:16:58;;;;;;;7.78;6.72;;;16.30;99.90;;;;;;4943778;28;20069;-67
2022/07/25 07:19:25;;;;;;;29.85;20.90;;;16.10;99.90;;;;;;4944076;28;20051;-66
2022/07/25 07:21:52;;;;;;;5.25;2.78;;;16.10;99.90;;;;;;4946459;28;20050;-64
2022/07/25 07:24:19;;;;;;;3.53;2.20;;;15.90;99.90;;;;;;4943556;28;20099;-67
2022/07/25 07:26:46;;;;;;;4.43;2.17;;;15.90;99.90;;;;;;4945992;28;20034;-68
2022/07/25 07:29:13;;;;;;;5.90;2.45;;;15.80;99.90;;;;;;4946717;28;20121;-64
2022/07/25 07:31:41;;;;;;;2.42;1.60;;;15.60;99.90;;;;;;4941555;28;20031;-69
2022/07/25 07:34:08;;;;;;;5.30;1.90;;;15.40;99.90;;;;;;4944199;28;20066;-64
2022/07/25 07:36:35;;;;;;;2.50;1.35;;;15.20;99.90;;;;;;4943484;28;20027;-68
2022/07/25 07:39:02;;;;;;;3.33;1.23;;;15.20;99.90;;;;;;4944847;28;20480;-63
2022/07/25 07:41:29;;;;;;;4.22;1.58;;;15.20;99.90;;;;;;4944734;28;20050;-65
2022/07/25 07:43:56;;;;;;;2.08;0.93;;;15.10;99.90;;;;;;4943005;28;20031;-68
2022/07/25 07:46:23;;;;;;;1.70;0.95;;;15.00;99.90;;;;;;4943883;28;20386;-67
2022/07/25 07:48:50;;;;;;;3.83;1.35;;;14.90;99.90;;;;;;4944175;28;20081;-65
2022/07/25 07:51:18;;;;;;;3.55;1.30;;;14.80;99.90;;;;;;4944428;28;20050;-67
2022/07/25 07:56:30;;;;;;;5.60;2.22;;;14.60;99.90;;;;;;4943791;28;20042;-65
2022/07/25 07:58:57;;;;;;;5.78;1.85;;;14.60;99.90;;;;;;4944712;28;20042;-64
2022/07/25 08:01:25;;;;;;;3.47;1.77;;;14.50;99.90;;;;;;4942785;28;20125;-67
2022/07/25 08:03:52;;;;;;;4.45;2.13;;;14.70;99.90;;;;;;4943510;28;20031;-66
2022/07/25 08:06:20;;;;;;;4.75;1.90;;;14.80;99.90;;;;;;4941234;28;20491;-67
2022/07/25 08:08:47;;;;;;;4.43;2.38;;;14.70;99.90;;;;;;4941838;28;20042;-68
2022/07/25 08:11:14;;;;;;;4.47;2.47;;;14.70;99.90;;;;;;4940769;28;20043;-67
2022/07/25 08:13:41;;;;;;;10.88;2.67;;;14.60;99.90;;;;;;4942933;28;20117;-68
2022/07/25 08:16:10;;;;;;;8.95;3.17;;;14.80;99.90;;;;;;4940816;28;20068;-66
2022/07/25 08:18:37;;;;;;;4.53;2.40;;;14.90;99.90;;;;;;4938549;28;20027;-70
2022/07/25 08:21:06;;;;;;;5.95;2.00;;;14.90;99.90;;;;;;4939241;28;20031;-68
2022/07/25 08:23:34;;;;;;;2.97;2.10;;;14.90;99.90;;;;;;4939257;28;20420;-67
2022/07/25 08:26:01;;;;;;;3.70;2.33;;;14.90;99.90;;;;;;4940267;28;20381;-66
2022/07/25 08:28:29;;;;;;;5.97;3.85;;;14.90;99.90;;;;;;4940383;28;20031;-66
2022/07/25 08:30:57;;;;;;;11.43;8.68;;;14.90;99.90;;;;;;4940956;28;20031;-69
2022/07/25 08:33:25;;;;;;;12.18;8.48;;;14.90;99.90;;;;;;4940558;28;20138;-70
2022/07/25 08:35:55;;;;;;;11.75;5.35;;;14.90;99.90;;;;;;4939534;28;20053;-67
2022/07/25 08:38:23;;;;;;;11.57;6.20;;;15.00;99.90;;;;;;4942279;28;20027;-67
2022/07/25 08:40:51;;;;;;;12.07;7.05;;;14.80;99.90;;;;;;4942714;28;20109;-66
2022/07/25 08:43:19;;;;;;;7.85;4.78;;;14.80;99.90;;;;;;4939829;28;20111;-68
2022/07/25 08:45:51;;;;;;;9.85;6.70;;;14.70;99.90;;;;;;4940038;28;20027;-69
2022/07/25 08:48:21;;;;;;;13.45;8.25;;;14.70;99.90;;;;;;4940529;28;20508;-70
2022/07/25 08:50:49;;;;;;;11.40;8.65;;;14.50;99.90;;;;;;4940737;28;20626;-70
2022/07/25 08:53:19;;;;;;;9.30;8.25;;;14.40;99.90;;;;;;4939264;28;20085;-70
2022/07/25 08:55:46;;;;;;;11.00;7.82;;;14.50;99.90;;;;;;4940356;28;20049;-65
2022/07/25 08:58:16;;;;;;;11.88;7.00;;;14.70;99.90;;;;;;4939953;28;20035;-66
2022/07/25 09:00:43;;;;;;;6.10;4.68;;;14.70;99.90;;;;;;4940943;28;20028;-66
2022/07/25 09:03:11;;;;;;;9.25;5.57;;;14.60;99.90;;;;;;4939703;28;20081;-70
2022/07/25 09:05:39;;;;;;;6.38;4.32;;;14.60;99.90;;;;;;4940332;28;20562;-66
2022/07/25 09:08:16;;;;;;;5.53;3.60;;;14.70;99.90;;;;;;4937522;28;20023;-68
2022/07/25 09:10:48;;;;;;;6.35;3.40;;;14.70;99.90;;;;;;4940518;28;20058;-69
2022/07/25 09:13:17;;;;;;;5.28;3.75;;;14.40;99.90;;;;;;4936559;28;20574;-67
2022/07/25 09:15:48;;;;;;;5.68;3.65;;;14.20;99.90;;;;;;4936612;28;20150;-69
2022/07/25 09:18:17;;;;;;;8.27;3.03;;;14.10;99.90;;;;;;4936175;28;20031;-71
2022/07/25 09:20:46;;;;;;;6.20;3.17;;;14.00;99.90;;;;;;4934764;28;20033;-65
2022/07/25 09:23:27;;;;;;;4.93;2.95;;;13.90;99.90;;;;;;4935295;28;20019;-67
2022/07/25 09:26:02;;;;;;;8.18;3.50;;;13.70;99.90;;;;;;4936630;28;20034;-72
2022/07/25 09:28:29;;;;;;;6.05;3.28;;;13.70;99.90;;;;;;4936416;28;20663;-68
2022/07/25 09:31:00;;;;;;;6.50;3.70;;;13.60;99.90;;;;;;4936645;28;20038;-70
2022/07/25 09:33:29;;;;;;;5.47;3.90;;;13.40;99.90;;;;;;4935841;28;20037;-68
2022/07/25 09:35:56;;;;;;;5.13;4.05;;;13.30;99.90;;;;;;4935638;28;20106;-69
2022/07/25 09:38:24;;;;;;;6.78;3.70;;;13.20;99.90;;;;;;4935992;28;20288;-65
2022/07/25 09:40:56;;;;;;;12.30;4.35;;;13.20;99.90;;;;;;4936384;28;20582;-69
2022/07/25 09:43:40;;;;;;;7.57;3.70;;;13.20;99.90;;;;;;4935420;28;20301;-67
2022/07/25 09:46:08;;;;;;;11.82;4.57;;;13.20;99.90;;;;;;4935352;28;20035;-68
2022/07/25 09:48:38;;;;;;;13.38;6.63;;;13.10;99.90;;;;;;4936436;28;20069;-69
2022/07/25 09:51:06;;;;;;;21.90;13.18;;;13.10;99.90;;;;;;4934674;28;21035;-69
2022/07/25 09:53:33;;;;;;;21.40;10.82;;;13.00;99.90;;;;;;4934579;28;20381;-68
2022/07/25 09:56:01;;;;;;;18.05;10.27;;;13.00;99.90;;;;;;4934644;28;20027;-66
2022/07/25 09:58:29;;;;;;;12.15;8.05;;;13.00;99.90;;;;;;4937134;28;20141;-67
2022/07/25 10:01:03;;;;;;;13.50;6.97;;;13.00;99.90;;;;;;4934670;28;20346;-68
2022/07/25 10:03:34;;;;;;;13.55;6.05;;;13.00;99.90;;;;;;4937069;28;20054;-72
2022/07/25 10:06:34;;;;;;;8.07;5.05;;;12.90;99.90;;;;;;4935929;28;20047;-67
2022/07/25 10:09:02;;;;;;;10.38;4.45;;;12.80;99.90;;;;;;4873871;29;20059;-69
2022/07/25 10:11:30;;;;;;;11.63;4.32;;;12.80;99.90;;;;;;4874980;29;20561;-69
2022/07/25 10:14:08;;;;;;;9.20;4.25;;;12.70;99.90;;;;;;4875409;29;20068;-69
2022/07/25 10:16:45;;;;;;;9.13;3.90;;;12.60;99.90;;;;;;4875868;29;20469;-66
2022/07/25 10:19:13;;;;;;;9.93;4.10;;;12.50;99.90;;;;;;4873683;29;20033;-71
2022/07/25 10:21:41;;;;;;;9.05;3.80;;;12.50;99.90;;;;;;4876492;29;20092;-65
2022/07/25 10:24:11;;;;;;;8.90;4.50;;;12.40;99.90;;;;;;4875272;29;20047;-69
2022/07/25 10:26:52;;;;;;;14.57;5.30;;;12.40;99.90;;;;;;4875717;29;20507;-69
2022/07/25 10:29:19;;;;;;;7.03;4.20;;;12.40;99.90;;;;;;4875291;29;20053;-65
2022/07/25 10:31:46;;;;;;;6.82;3.70;;;12.40;99.90;;;;;;4876194;29;20037;-67
2022/07/25 10:34:13;;;;;;;8.68;3.92;;;12.40;99.90;;;;;;4873561;29;20425;-69
2022/07/25 10:36:55;;;;;;;8.05;4.47;;;12.40;99.90;;;;;;4874572;29;20076;-69
2022/07/25 10:39:23;;;;;;;10.20;3.70;;;12.30;99.90;;;;;;4875267;29;20465;-67
2022/07/25 10:41:59;;;;;;;9.00;3.88;;;12.20;99.90;;;;;;4873134;29;20067;-65
2022/07/25 10:44:38;;;;;;;6.85;3.85;;;12.20;99.90;;;;;;4880356;28;20279;-66
2022/07/25 10:47:14;;;;;;;11.05;3.80;;;12.20;99.90;;;;;;4939202;28;20042;-64
2022/07/25 10:49:48;;;;;;;6.80;3.72;;;12.20;99.90;;;;;;4938801;28;20035;-64
2022/07/25 10:52:17;;;;;;;8.02;3.38;;;12.10;99.90;;;;;;4938695;28;20035;-68
2022/07/25 10:54:56;;;;;;;9.15;4.68;;;12.10;99.90;;;;;;4939596;28;20035;-64
2022/07/25 10:57:24;;;;;;;7.47;4.63;;;12.20;99.90;;;;;;4936320;28;20050;-71
2022/07/25 10:59:52;;;;;;;9.57;5.15;;;12.10;99.90;;;;;;4939058;28;20027;-65
2022/07/25 11:02:19;;;;;;;12.25;4.97;;;12.10;99.90;;;;;;4941101;28;20109;-67
2022/07/25 11:04:59;;;;;;;12.68;4.32;;;12.10;99.90;;;;;;4940032;28;20106;-66
2022/07/25 11:07:27;;;;;;;7.97;4.20;;;12.10;99.90;;;;;;4938841;28;20145;-65
2022/07/25 11:10:00;;;;;;;7.53;4.18;;;12.10;99.90;;;;;;4940918;28;20097;-62
2022/07/25 11:12:27;;;;;;;8.00;4.13;;;11.90;99.90;;;;;;4941517;28;20574;-64
2022/07/25 11:15:05;;;;;;;8.07;4.05;;;11.90;99.90;;;;;;4944141;28;20049;-64
2022/07/25 11:17:33;;;;;;;11.25;5.10;;;11.90;99.90;;;;;;4946743;28;20122;-65
2022/07/25 11:20:10;;;;;;;6.82;4.72;;;11.80;99.90;;;;;;4944990;28;20047;-66
2022/07/25 11:22:37;;;;;;;11.50;5.65;;;11.70;99.90;;;;;;4945742;28;20027;-61
2022/07/25 11:25:13;;;;;;;9.45;4.95;;;11.60;99.90;;;;;;4948095;28;20019;-67
2022/07/25 11:27:40;;;;;;;24.73;15.93;;;11.50;99.90;;;;;;4952317;28;20039;-66
2022/07/25 11:30:14;;;;;;;27.95;17.60;;;11.50;99.90;;;;;;4946852;28;20427;-66
2022/07/25 11:32:49;;;;;;;16.13;10.13;;;11.40;99.90;;;;;;4946122;28;20035;-66
2022/07/25 11:35:20;;;;;;;17.55;8.85;;;11.30;99.90;;;;;;4946268;28;20646;-61
2022/07/25 11:37:49;;;;;;;11.82;6.15;;;11.20;99.90;;;;;;4949215;28;20037;-71
2022/07/25 11:40:17;;;;;;;11.47;5.23;;;11.20;99.90;;;;;;4603095;28;10000336;-60
2022/07/25 11:42:52;;;;;;;9.30;5.30;;;11.10;99.90;;;;;;4943880;28;20047;-60
2022/07/25 11:45:24;;;;;;;8.93;5.63;;;11.00;99.90;;;;;;4947575;28;20033;-61
2022/07/25 11:48:12;;;;;;;11.73;4.55;;;10.90;99.90;;;;;;4943815;28;20023;-67
2022/07/25 11:50:41;;;;;;;9.20;5.93;;;10.90;99.90;;;;;;4944411;28;20129;-63
2022/07/25 11:53:14;;;;;;;10.68;5.28;;;11.00;99.90;;;;;;4945518;28;20125;-64
2022/07/25 11:55:42;;;;;;;9.00;5.00;;;10.90;99.90;;;;;;4940722;28;20035;-64
2022/07/25 11:58:11;;;;;;;10.57;6.25;;;10.80;99.90;;;;;;4948075;28;20043;-65
2022/07/25 12:00:47;;;;;;;9.55;5.72;;;10.80;99.90;;;;;;4949639;28;20114;-67
2022/07/25 12:03:16;;;;;;;8.70;5.78;;;10.80;99.90;;;;;;4948488;28;20024;-67
2022/07/25 12:05:44;;;;;;;12.45;6.68;;;10.70;99.90;;;;;;4949315;28;20499;-62
2022/07/25 12:08:22;;;;;;;11.80;6.57;;;10.70;99.90;;;;;;4949954;28;20023;-62
2022/07/25 12:10:54;;;;;;;11.05;7.43;;;10.80;99.90;;;;;;4950330;28;20030;-64
2022/07/25 12:13:26;;;;;;;15.60;6.82;;;10.80;99.90;;;;;;4947921;28;20495;-64
2022/07/25 12:15:55;;;;;;;14.45;6.80;;;10.80;99.90;;;;;;4948776;28;20035;-63
2022/07/25 12:18:22;;;;;;;10.70;7.10;;;10.80;99.90;;;;;;4948940;28;20488;-64
2022/07/25 12:20:49;;;;;;;13.90;6.95;;;10.80;99.90;;;;;;4951846;28;20015;-64
2022/07/25 12:23:17;;;;;;;10.55;6.93;;;10.80;99.90;;;;;;4949172;28;20023;-64
2022/07/25 12:25:45;;;;;;;11.07;7.20;;;10.70;99.90;;;;;;4950823;28;20086;-67
2022/07/25 12:28:13;;;;;;;12.48;7.57;;;10.70;99.90;;;;;;4948221;28;20069;-63
2022/07/25 12:30:45;;;;;;;11.50;6.60;;;10.70;99.90;;;;;;4948994;28;20020;-64
2022/07/25 12:33:13;;;;;;;10.30;6.35;;;10.70;99.90;;;;;;4947488;28;20070;-64
2022/07/25 12:35:42;;;;;;;10.38;6.38;;;10.70;99.90;;;;;;4949182;28;20028;-64
2022/07/25 12:38:10;;;;;;;10.10;6.22;;;10.70;99.90;;;;;;4951464;28;20455;-67
2022/07/25 12:40:37;;;;;;;11.25;6.13;;;10.70;99.90;;;;;;4949575;28;20038;-67
2022/07/25 12:43:05;;;;;;;8.70;6.00;;;10.70;99.90;;;;;;4948483;28;20066;-62
2022/07/25 12:45:32;;;;;;;11.02;6.40;;;10.70;99.90;;;;;;4955160;28;20023;-64
2022/07/25 12:47:59;;;;;;;7.80;6.00;;;10.60;99.90;;;;;;4951769;28;20424;-64
2022/07/25 12:50:26;;;;;;;11.20;6.13;;;10.60;99.90;;;;;;4953558;28;20030;-64
2022/07/25 12:52:54;;;;;;;8.38;6.00;;;10.60;99.90;;;;;;4952086;28;20035;-64
2022/07/25 12:55:22;;;;;;;10.45;6.97;;;10.60;99.90;;;;;;4952556;28;20046;-64